createdAt,value
2019-05-16T00:00:29.065Z,10.90
2019-05-16T00:03:32.755Z,10.90
2019-05-16T00:06:38.880Z,10.90
2019-05-16T00:09:42.339Z,10.90
2019-05-16T00:12:48.424Z,10.90
2019-05-16T00:15:51.817Z,10.80
2019-05-16T00:18:58.201Z,10.80
2019-05-16T00:22:01.604Z,10.80
2019-05-16T00:25:05.915Z,10.80
2019-05-16T00:28:09.875Z,10.80
2019-05-16T00:31:14.038Z,10.80
2019-05-16T00:34:18.888Z,10.80
2019-05-16T00:37:23.437Z,10.80
2019-05-16T00:40:27.898Z,10.80
2019-05-16T00:43:32.060Z,10.70
2019-05-16T00:46:38.366Z,10.70
2019-05-16T00:49:41.661Z,10.70
2019-05-16T00:52:45.620Z,10.70
2019-05-16T00:55:49.560Z,10.70
2019-05-16T00:58:55.019Z,10.70
2019-05-16T01:01:59.367Z,10.80
2019-05-16T01:05:03.473Z,10.80
2019-05-16T01:08:07.906Z,10.80
2019-05-16T01:11:12.041Z,10.70
2019-05-16T01:14:17.677Z,10.70
2019-05-16T01:17:22.208Z,10.70
2019-05-16T01:20:27.954Z,10.70
2019-05-16T01:23:32.045Z,10.70
2019-05-16T01:26:36.188Z,10.70
2019-05-16T01:29:41.539Z,10.70
2019-05-16T01:32:45.923Z,10.70
2019-05-16T01:35:51.049Z,10.70
2019-05-16T01:38:55.016Z,10.70
2019-05-16T01:41:59.000Z,10.70
2019-05-16T01:45:03.441Z,10.70
2019-05-16T01:48:08.256Z,10.70
2019-05-16T01:51:12.440Z,10.60
2019-05-16T01:54:17.976Z,10.60
2019-05-16T01:57:22.011Z,10.60
2019-05-16T02:00:34.877Z,10.60
2019-05-16T02:03:31.591Z,10.60
2019-05-16T02:06:48.456Z,10.60
2019-05-16T02:09:41.714Z,10.60
2019-05-16T02:12:45.997Z,10.60
2019-05-16T02:15:50.698Z,10.60
2019-05-16T02:18:54.759Z,10.60
2019-05-16T02:21:59.657Z,10.60
2019-05-16T02:25:04.530Z,10.60
2019-05-16T02:28:08.798Z,10.60
2019-05-16T02:31:15.446Z,10.60
2019-05-16T02:34:21.432Z,10.60
2019-05-16T02:37:29.459Z,10.60
2019-05-16T02:40:31.344Z,10.60
2019-05-16T02:43:35.908Z,10.60
2019-05-16T02:46:41.839Z,10.60
2019-05-16T02:49:46.335Z,10.60
2019-05-16T02:52:51.727Z,10.50
2019-05-16T02:55:56.028Z,10.50
2019-05-16T02:59:02.086Z,10.60
2019-05-16T03:02:07.027Z,10.60
2019-05-16T03:05:12.788Z,10.60
2019-05-16T03:08:21.051Z,10.50
2019-05-16T03:11:25.576Z,10.50
2019-05-16T03:14:31.769Z,10.50
2019-05-16T03:17:35.869Z,10.50
2019-05-16T03:20:40.801Z,10.50
2019-05-16T03:23:46.337Z,10.50
2019-05-16T03:26:51.578Z,10.50
2019-05-16T03:29:56.101Z,10.50
2019-05-16T03:33:04.555Z,10.50
2019-05-16T03:36:15.007Z,10.50
2019-05-16T03:39:14.684Z,10.50
2019-05-16T03:42:20.491Z,10.40
2019-05-16T03:45:24.835Z,10.50
2019-05-16T03:48:31.437Z,10.50
2019-05-16T03:51:34.475Z,10.50
2019-05-16T03:54:41.755Z,10.40
2019-05-16T03:57:43.981Z,10.40
2019-05-16T04:00:52.338Z,10.40
2019-05-16T04:03:56.689Z,10.40
2019-05-16T04:07:01.411Z,10.40
2019-05-16T04:10:10.684Z,10.40
2019-05-16T04:13:13.501Z,10.50
2019-05-16T04:16:20.721Z,10.40
2019-05-16T04:19:23.052Z,10.40
2019-05-16T04:22:27.459Z,10.40
2019-05-16T04:25:31.456Z,10.50
2019-05-16T04:28:37.159Z,10.50
2019-05-16T04:31:41.698Z,10.50
2019-05-16T04:34:46.188Z,10.50
2019-05-16T04:37:51.287Z,10.50
2019-05-16T04:40:55.876Z,10.50
2019-05-16T04:44:01.563Z,10.50
2019-05-16T04:47:05.499Z,10.50
2019-05-16T04:50:11.599Z,10.60
2019-05-16T04:53:16.521Z,10.60
2019-05-16T04:56:21.714Z,10.70
2019-05-16T04:59:26.339Z,10.70
2019-05-16T05:02:30.931Z,10.80
2019-05-16T05:05:35.183Z,10.80
2019-05-16T05:08:50.527Z,10.90
2019-05-16T05:11:45.318Z,10.90
2019-05-16T05:14:51.200Z,11.00
2019-05-16T05:17:55.219Z,11.00
2019-05-16T05:21:00.866Z,11.10
2019-05-16T05:24:06.424Z,11.10
2019-05-16T05:27:10.601Z,11.10
2019-05-16T05:30:16.194Z,11.10
2019-05-16T05:33:21.286Z,11.10
2019-05-16T05:36:25.285Z,11.10
2019-05-16T05:39:30.319Z,11.10
2019-05-16T05:42:34.377Z,11.20
2019-05-16T05:45:40.157Z,11.30
2019-05-16T05:48:43.949Z,11.30
2019-05-16T05:51:50.119Z,11.30
2019-05-16T05:54:56.250Z,11.30
2019-05-16T05:58:01.082Z,11.30
2019-05-16T06:01:07.461Z,11.30
2019-05-16T06:04:12.099Z,11.40
2019-05-16T06:07:16.836Z,11.40
2019-05-16T06:10:22.673Z,11.40
2019-05-16T06:13:27.181Z,11.40
2019-05-16T06:16:31.762Z,11.40
2019-05-16T06:19:36.273Z,11.50
2019-05-16T06:22:44.588Z,11.50
2019-05-16T06:25:50.464Z,11.60
2019-05-16T06:28:54.890Z,11.70
2019-05-16T06:32:01.369Z,11.80
2019-05-16T06:35:09.792Z,11.80
2019-05-16T06:38:17.567Z,11.90
2019-05-16T06:41:23.551Z,12.00
2019-05-16T06:44:30.995Z,12.00
2019-05-16T06:47:35.126Z,12.00
2019-05-16T06:50:41.299Z,12.10
2019-05-16T06:53:47.207Z,12.10
2019-05-16T06:56:51.799Z,12.20
2019-05-16T06:59:55.764Z,12.30
2019-05-16T07:03:00.377Z,12.40
2019-05-16T07:06:04.712Z,12.50
2019-05-16T07:09:10.548Z,12.60
2019-05-16T07:12:14.228Z,12.60
2019-05-16T07:15:20.667Z,12.60
2019-05-16T07:18:24.865Z,12.50
2019-05-16T07:21:31.093Z,12.50
2019-05-16T07:24:34.243Z,12.40
2019-05-16T07:27:40.161Z,12.40
2019-05-16T07:30:43.685Z,12.30
2019-05-16T07:33:50.046Z,12.30
2019-05-16T07:36:53.361Z,12.30
2019-05-16T07:40:01.053Z,12.30
2019-05-16T07:43:02.741Z,12.40
2019-05-16T07:46:06.692Z,12.40
2019-05-16T07:49:11.471Z,12.40
2019-05-16T07:52:16.283Z,12.40
2019-05-16T07:55:20.900Z,12.40
2019-05-16T07:58:25.445Z,12.50
2019-05-16T08:01:30.711Z,12.60
2019-05-16T08:04:36.411Z,12.60
2019-05-16T08:07:40.866Z,12.70
2019-05-16T08:10:46.750Z,12.80
2019-05-16T08:13:50.897Z,12.80
2019-05-16T08:16:54.890Z,12.90
2019-05-16T08:20:00.092Z,13.00
2019-05-16T08:23:05.783Z,13.20
2019-05-16T08:26:10.369Z,13.40
2019-05-16T08:29:14.486Z,13.60
2019-05-16T08:32:22.619Z,13.60
2019-05-16T08:35:24.262Z,13.70
2019-05-16T08:38:30.585Z,13.70
2019-05-16T08:41:33.693Z,13.70
2019-05-16T08:44:41.558Z,13.60
2019-05-16T08:47:43.999Z,13.60
2019-05-16T08:50:53.824Z,13.60
2019-05-16T08:53:53.722Z,13.70
2019-05-16T08:57:07.489Z,13.90
2019-05-16T09:00:03.601Z,14.10
2019-05-16T09:03:07.441Z,14.30
2019-05-16T09:06:11.903Z,14.30
2019-05-16T09:09:29.615Z,14.30
2019-05-16T09:12:21.781Z,14.30
2019-05-16T09:15:27.404Z,14.30
2019-05-16T09:18:40.651Z,14.40
2019-05-16T09:21:38.477Z,14.50
2019-05-16T09:24:42.649Z,14.60
2019-05-16T09:27:47.055Z,14.70
2019-05-16T09:30:51.195Z,14.70
2019-05-16T09:33:56.744Z,14.80
2019-05-16T09:37:01.822Z,14.80
2019-05-16T09:40:08.106Z,14.80
2019-05-16T09:43:11.943Z,14.90
2019-05-16T09:46:17.147Z,14.90
2019-05-16T09:49:24.880Z,14.90
2019-05-16T09:52:27.306Z,14.90
2019-05-16T09:55:31.681Z,14.80
2019-05-16T09:58:37.289Z,14.80
2019-05-16T10:01:41.115Z,14.70
2019-05-16T10:04:47.217Z,14.60
2019-05-16T10:07:50.581Z,14.60
2019-05-16T10:10:56.849Z,14.60
2019-05-16T10:14:00.051Z,14.60
2019-05-16T10:17:03.932Z,14.70
2019-05-16T10:20:08.849Z,14.80
2019-05-16T10:23:14.505Z,15.00
2019-05-16T10:26:21.400Z,15.30
2019-05-16T10:29:27.462Z,15.50
2019-05-16T10:32:30.783Z,15.60
2019-05-16T10:35:37.337Z,15.70
2019-05-16T10:38:40.201Z,15.80
2019-05-16T10:41:46.505Z,16.00
2019-05-16T10:44:49.679Z,16.00
2019-05-16T10:47:53.595Z,16.10
2019-05-16T10:50:57.856Z,16.10
2019-05-16T10:54:09.750Z,16.10
2019-05-16T10:57:08.441Z,16.20
2019-05-16T11:00:26.478Z,16.20
2019-05-16T11:03:18.426Z,16.20
2019-05-16T11:06:28.228Z,16.20
2019-05-16T11:09:29.864Z,16.30
2019-05-16T11:12:47.385Z,16.30
2019-05-16T11:15:41.875Z,16.20
2019-05-16T11:19:14.310Z,16.00
2019-05-16T11:22:14.140Z,16.00
2019-05-16T11:25:28.711Z,16.00
2019-05-16T11:28:29.962Z,16.00
2019-05-16T11:31:34.241Z,16.10
2019-05-16T11:34:39.727Z,16.20
2019-05-16T11:37:43.664Z,16.20
2019-05-16T11:41:11.899Z,16.20
2019-05-16T11:44:17.633Z,16.20
2019-05-16T11:47:21.352Z,16.30
2019-05-16T11:50:27.881Z,16.30
2019-05-16T11:53:32.682Z,16.40
2019-05-16T11:56:37.009Z,16.50
2019-05-16T11:59:41.353Z,16.60
2019-05-16T12:02:47.831Z,16.70
2019-05-16T12:05:50.800Z,16.80
2019-05-16T12:08:54.749Z,16.80
2019-05-16T12:12:03.947Z,16.80
2019-05-16T12:15:07.869Z,16.80
2019-05-16T12:18:11.067Z,16.80
2019-05-16T12:21:17.267Z,16.90
2019-05-16T12:24:33.270Z,16.80
2019-05-16T12:27:32.479Z,16.80
2019-05-16T12:30:33.533Z,16.70
2019-05-16T12:33:38.069Z,16.70
2019-05-16T12:36:42.245Z,16.80
2019-05-16T12:39:47.611Z,16.80
2019-05-16T12:42:54.445Z,16.80
2019-05-16T12:46:01.431Z,17.00
2019-05-16T12:49:07.009Z,17.10
2019-05-16T12:52:11.253Z,17.20
2019-05-16T12:55:17.556Z,17.10
2019-05-16T12:58:26.080Z,17.10
2019-05-16T13:01:33.773Z,17.00
2019-05-16T13:04:34.379Z,17.00
2019-05-16T13:07:38.244Z,17.00
2019-05-16T13:10:42.166Z,17.00
2019-05-16T13:14:02.364Z,17.10
2019-05-16T13:16:51.818Z,17.20
2019-05-16T13:19:57.543Z,17.20
2019-05-16T13:23:01.449Z,17.20
2019-05-16T13:26:08.424Z,17.30
2019-05-16T13:29:12.523Z,17.30
2019-05-16T13:32:33.556Z,17.30
2019-05-16T13:35:37.305Z,17.40
2019-05-16T13:38:41.191Z,17.40
2019-05-16T13:41:47.930Z,17.40
2019-05-16T13:44:51.911Z,17.30
2019-05-16T13:48:04.387Z,17.30
2019-05-16T13:55:51.862Z,17.30
2019-05-16T13:59:27.852Z,17.30
2019-05-16T14:02:26.586Z,17.20
2019-05-16T14:05:30.047Z,17.20
2019-05-16T14:08:46.682Z,17.20
2019-05-16T14:11:50.410Z,17.30
2019-05-16T14:14:54.372Z,17.20
2019-05-16T14:17:59.550Z,17.20
2019-05-16T14:21:03.566Z,17.10
2019-05-16T14:24:17.826Z,17.10
2019-05-16T14:27:23.248Z,17.10
2019-05-16T14:30:29.337Z,17.10
2019-05-16T14:33:47.353Z,17.10
2019-05-16T14:36:59.090Z,17.30
2019-05-16T14:40:18.020Z,17.30
2019-05-16T14:43:32.542Z,17.30
2019-05-16T14:46:38.217Z,17.30
2019-05-16T14:49:42.175Z,17.30
2019-05-16T14:52:47.307Z,17.30
2019-05-16T14:55:52.940Z,17.30
2019-05-16T14:58:57.714Z,17.20
2019-05-16T15:02:01.940Z,17.10
2019-05-16T15:05:16.720Z,17.10
2019-05-16T15:08:20.798Z,17.10
2019-05-16T15:11:28.008Z,17.20
2019-05-16T15:14:30.554Z,17.20
2019-05-16T15:17:34.524Z,17.30
2019-05-16T15:20:38.560Z,17.40
2019-05-16T15:23:42.527Z,17.40
2019-05-16T15:26:50.747Z,17.50
2019-05-16T15:29:57.170Z,17.60
2019-05-16T15:33:03.570Z,17.60
2019-05-16T15:36:08.492Z,17.60
2019-05-16T15:39:13.088Z,17.60
2019-05-16T15:42:18.043Z,17.50
2019-05-16T15:45:35.625Z,17.50
2019-05-16T15:48:31.503Z,17.50
2019-05-16T15:51:41.233Z,17.60
2019-05-16T15:55:09.572Z,17.60
2019-05-16T15:58:13.495Z,17.70
2019-05-16T16:01:23.652Z,17.70
2019-05-16T16:04:23.369Z,17.70
2019-05-16T16:07:48.931Z,17.60
2019-05-16T16:11:07.046Z,17.60
2019-05-16T16:14:10.310Z,17.70
2019-05-16T16:17:29.455Z,17.70
2019-05-16T16:20:29.108Z,17.70
2019-05-16T16:23:37.873Z,17.80
2019-05-16T16:27:17.135Z,17.80
2019-05-16T16:30:44.551Z,17.80
2019-05-16T16:33:57.267Z,17.70
2019-05-16T16:37:14.052Z,17.60
2019-05-16T16:40:19.516Z,17.50
2019-05-16T16:43:32.376Z,17.30
2019-05-16T16:46:58.270Z,17.30
2019-05-16T16:50:02.213Z,17.20
2019-05-16T16:53:28.973Z,17.10
2019-05-16T17:20:14.701Z,17.30
2019-05-16T17:23:37.085Z,17.20
2019-05-16T17:27:21.074Z,17.10
2019-05-16T17:30:32.402Z,17.00
2019-05-16T17:33:38.131Z,16.90
2019-05-16T17:36:42.693Z,16.80
2019-05-16T17:39:47.465Z,16.80
2019-05-16T17:42:51.626Z,16.70
2019-05-16T17:45:57.693Z,16.60
2019-05-16T17:49:02.268Z,16.60
2019-05-16T17:52:06.959Z,16.50
2019-05-16T17:55:12.023Z,16.40
2019-05-16T17:58:22.133Z,16.40
2019-05-16T18:01:27.427Z,16.20
2019-05-16T18:04:32.326Z,16.20
2019-05-16T18:11:52.368Z,16.10
2019-05-16T18:14:59.760Z,16.00
2019-05-16T18:18:03.906Z,15.90
2019-05-16T18:21:31.882Z,15.90
2019-05-16T18:24:37.106Z,15.80
2019-05-16T18:27:41.107Z,15.80
2019-05-16T18:30:47.093Z,15.70
2019-05-16T18:33:52.952Z,15.70
2019-05-16T18:36:57.262Z,15.70
2019-05-16T18:40:01.373Z,15.70
2019-05-16T18:43:07.882Z,15.70
2019-05-16T18:46:11.155Z,15.60
2019-05-16T18:49:31.734Z,15.50
2019-05-16T18:52:37.459Z,15.50
2019-05-16T18:55:46.232Z,15.50
2019-05-16T19:02:13.376Z,15.40
2019-05-16T19:05:18.408Z,15.30
2019-05-16T19:08:22.589Z,15.30
2019-05-16T19:11:29.925Z,15.30
2019-05-16T19:14:34.169Z,15.30
2019-05-16T19:17:58.808Z,15.20
2019-05-16T19:21:08.570Z,15.10
2019-05-16T19:24:19.631Z,15.10
2019-05-16T19:27:30.457Z,15.10
2019-05-16T19:30:37.757Z,15.00
2019-05-16T19:33:43.789Z,15.00
2019-05-16T19:36:49.793Z,14.90
2019-05-16T19:40:02.884Z,14.90
2019-05-16T19:43:26.421Z,14.80
2019-05-16T19:46:29.692Z,14.70
2019-05-16T19:49:40.774Z,14.70
2019-05-16T19:53:12.801Z,14.60
2019-05-16T19:56:13.030Z,14.60
2019-05-16T19:59:21.310Z,14.50
2019-05-16T20:05:51.678Z,14.50
2019-05-16T20:08:55.994Z,14.40
2019-05-16T20:12:01.010Z,14.30
2019-05-16T20:15:11.701Z,14.20
2019-05-16T20:18:18.155Z,14.20
2019-05-16T20:21:21.083Z,14.10
2019-05-16T20:24:27.233Z,14.10
2019-05-16T20:27:36.522Z,14.00
2019-05-16T20:30:44.132Z,14.00
2019-05-16T20:34:00.027Z,14.00
2019-05-16T20:37:09.246Z,13.90
2019-05-16T20:40:17.515Z,13.90
2019-05-16T20:43:26.251Z,13.80
2019-05-16T20:46:32.714Z,13.80
2019-05-16T20:49:37.614Z,13.80
2019-05-16T20:52:43.704Z,13.70
2019-05-16T20:55:49.549Z,13.70
2019-05-16T20:59:02.639Z,13.60
2019-05-16T21:02:08.409Z,13.60
2019-05-16T21:20:20.076Z,13.30
2019-05-16T21:32:37.678Z,13.20
2019-05-16T21:40:19.195Z,13.20
2019-05-16T21:59:17.910Z,13.20
